Time;durP1;ratioP1;P1;durP2;ratioP2;P2;SDS_P1;SDS_P2;PMS_P1;PMS_P2;Temp;Humidity;BMP_temperature;BMP_pressure;BME280_temperature;BME280_humidity;BME280_pressure;Samples;Min_cycle;Max_cycle;Signal;HPM_P1;HPM_P2
2022/08/24 00:00:09;;;;;;;7.22;6.55;;;;;;;;;;5038418;28;20083;-81
2022/08/24 00:02:37;;;;;;;8.20;7.53;;;;;;;;;;5056355;28;20103;-81
2022/08/24 00:05:04;;;;;;;8.27;7.30;;;;;;;;;;5056398;28;20053;-81
2022/08/24 00:07:33;;;;;;;9.23;8.43;;;;;;;;;;5055924;28;20049;-81
2022/08/24 00:10:00;;;;;;;8.57;7.72;;;;;;;;;;5038675;28;20095;-82
2022/08/24 00:12:28;;;;;;;9.52;7.05;;;;;;;;;;5037912;28;20087;-81
2022/08/24 00:14:55;;;;;;;7.93;7.22;;;;;;;;;;5038615;28;20531;-81
2022/08/24 00:17:22;;;;;;;8.25;7.53;;;;;;;;;;5061507;28;20049;-81
2022/08/24 00:19:49;;;;;;;10.38;7.78;;;;;;;;;;5065859;28;20049;-81
2022/08/24 00:22:17;;;;;;;8.20;7.50;;;;;;;;;;5058652;28;20087;-81
2022/08/24 00:24:44;;;;;;;8.85;8.05;;;;;;;;;;5038760;28;20075;-81
2022/08/24 00:27:11;;;;;;;12.82;7.97;;;;;;;;;;5038818;28;20048;-81
2022/08/24 00:29:38;;;;;;;8.68;7.85;;;;;;;;;;5056265;28;20075;-81
2022/08/24 00:32:06;;;;;;;9.52;7.95;;;;;;;;;;5040701;28;20475;-82
2022/08/24 00:34:34;;;;;;;9.25;8.30;;;;;;;;;;5039613;28;20076;-81
2022/08/24 00:37:01;;;;;;;9.27;8.48;;;;;;;;;;5039710;28;20095;-81
2022/08/24 00:39:29;;;;;;;9.48;8.40;;;;;;;;;;5056617;28;20045;-81
2022/08/24 00:41:56;;;;;;;9.23;8.30;;;;;;;;;;5038196;28;20052;-81
2022/08/24 00:44:23;;;;;;;10.00;7.75;;;;;;;;;;5055820;28;20088;-81
2022/08/24 00:46:53;;;;;;;8.10;7.40;;;;;;;;;;5037536;28;20045;-81
2022/08/24 00:49:23;;;;;;;9.80;8.80;;;;;;;;;;5038537;28;20068;-81
2022/08/24 00:52:11;;;;;;;10.25;8.68;;;;;;;;;;5038808;28;20401;-81
2022/08/24 00:54:41;;;;;;;9.82;8.82;;;;;;;;;;5038452;28;20052;-81
2022/08/24 00:57:13;;;;;;;7.82;7.15;;;;;;;;;;5038899;28;20075;-82
2022/08/24 00:59:50;;;;;;;10.15;7.55;;;;;;;;;;5039067;28;20463;-81
2022/08/24 01:02:20;;;;;;;9.77;8.77;;;;;;;;;;5056822;28;20045;-81
2022/08/24 01:04:51;;;;;;;10.57;8.05;;;;;;;;;;5037961;28;20052;-81
2022/08/24 01:07:21;;;;;;;10.48;8.48;;;;;;;;;;5056195;28;20557;-81
2022/08/24 01:09:49;;;;;;;9.90;8.90;;;;;;;;;;5038604;28;20049;-81
2022/08/24 01:12:16;;;;;;;10.68;8.90;;;;;;;;;;5056157;28;20075;-81
2022/08/24 01:14:44;;;;;;;11.55;9.48;;;;;;;;;;5056420;28;20079;-81
2022/08/24 01:20:05;;;;;;;11.63;9.68;;;;;;;;;;5056582;28;20056;-82
2022/08/24 01:22:52;;;;;;;11.18;10.00;;;;;;;;;;5061243;28;20045;-81
2022/08/24 01:25:20;;;;;;;9.73;8.77;;;;;;;;;;5045700;28;20048;-81
2022/08/24 01:27:49;;;;;;;12.60;8.95;;;;;;;;;;5060517;28;20115;-81
2022/08/24 01:30:17;;;;;;;9.48;8.68;;;;;;;;;;5039362;28;20068;-81
2022/08/24 01:32:54;;;;;;;8.65;7.80;;;;;;;;;;5056847;28;20055;-81
2022/08/24 01:35:22;;;;;;;10.43;9.18;;;;;;;;;;5040685;28;20045;-81
2022/08/24 01:37:50;;;;;;;10.65;9.52;;;;;;;;;;5042774;28;20080;-82
2022/08/24 01:40:18;;;;;;;10.52;9.65;;;;;;;;;;5038949;28;20084;-81
2022/08/24 01:42:49;;;;;;;9.13;8.32;;;;;;;;;;5056014;28;20041;-81
2022/08/24 01:45:17;;;;;;;11.23;9.60;;;;;;;;;;5042909;28;20085;-81
2022/08/24 01:47:44;;;;;;;10.50;8.90;;;;;;;;;;5041730;28;20045;-82
2022/08/24 01:50:11;;;;;;;9.80;8.93;;;;;;;;;;5059799;28;20045;-82
2022/08/24 01:52:40;;;;;;;9.23;8.32;;;;;;;;;;5039502;28;20053;-82
2022/08/24 01:55:28;;;;;;;10.38;8.50;;;;;;;;;;5054452;28;20112;-81
2022/08/24 01:57:55;;;;;;;9.10;8.40;;;;;;;;;;5036630;28;20099;-81
2022/08/24 02:00:22;;;;;;;12.88;8.75;;;;;;;;;;5036676;28;20553;-81
2022/08/24 02:02:49;;;;;;;11.25;8.80;;;;;;;;;;5054378;28;20045;-81
2022/08/24 02:05:17;;;;;;;9.18;8.38;;;;;;;;;;5040193;28;20095;-82
2022/08/24 02:07:44;;;;;;;12.52;8.73;;;;;;;;;;5057720;28;20053;-82
2022/08/24 02:10:13;;;;;;;11.35;8.68;;;;;;;;;;5060471;28;20045;-83
2022/08/24 02:12:41;;;;;;;10.63;9.57;;;;;;;;;;5043002;28;20044;-83
2022/08/24 02:15:10;;;;;;;8.55;7.75;;;;;;;;;;5060780;28;20102;-83
2022/08/24 02:17:37;;;;;;;10.27;9.23;;;;;;;;;;5060681;28;20041;-83
2022/08/24 02:20:05;;;;;;;9.82;8.55;;;;;;;;;;5059572;28;20049;-82
2022/08/24 02:22:32;;;;;;;9.90;9.00;;;;;;;;;;5041393;28;20088;-82
2022/08/24 02:25:00;;;;;;;12.18;10.10;;;;;;;;;;5058773;28;20045;-81
2022/08/24 02:27:27;;;;;;;10.25;9.30;;;;;;;;;;5039979;28;20045;-83
2022/08/24 02:29:54;;;;;;;13.93;10.07;;;;;;;;;;5039779;28;20081;-82
2022/08/24 02:32:22;;;;;;;11.50;9.73;;;;;;;;;;5039678;28;20057;-82
2022/08/24 02:34:49;;;;;;;12.18;9.55;;;;;;;;;;5056897;28;20524;-82
2022/08/24 02:37:20;;;;;;;11.55;8.55;;;;;;;;;;5040213;28;20063;-82
2022/08/24 02:39:48;;;;;;;11.02;9.65;;;;;;;;;;5057019;28;20499;-82
2022/08/24 02:42:15;;;;;;;10.80;9.75;;;;;;;;;;5056790;28;20123;-82
2022/08/24 02:44:42;;;;;;;10.70;9.52;;;;;;;;;;5039144;28;20068;-83
2022/08/24 02:47:09;;;;;;;10.43;9.48;;;;;;;;;;5056248;28;20053;-82
2022/08/24 02:49:37;;;;;;;10.77;9.30;;;;;;;;;;5038865;28;20416;-82
2022/08/24 02:52:04;;;;;;;10.23;9.15;;;;;;;;;;5038681;28;20079;-82
2022/08/24 02:54:31;;;;;;;9.90;8.55;;;;;;;;;;5038788;28;20057;-82
2022/08/24 02:56:58;;;;;;;8.98;8.25;;;;;;;;;;5038945;28;20499;-83
2022/08/24 02:59:26;;;;;;;8.55;7.78;;;;;;;;;;5038875;28;20045;-82
2022/08/24 03:01:53;;;;;;;10.73;8.70;;;;;;;;;;5038643;28;20060;-82
2022/08/24 03:04:20;;;;;;;8.68;7.82;;;;;;;;;;5038320;28;20128;-83
2022/08/24 03:06:47;;;;;;;8.48;7.55;;;;;;;;;;5038127;28;20044;-82
2022/08/24 03:09:15;;;;;;;12.57;8.18;;;;;;;;;;5056059;28;20049;-83
2022/08/24 03:11:42;;;;;;;8.13;7.38;;;;;;;;;;5056238;28;20073;-82
2022/08/24 03:14:12;;;;;;;8.57;7.47;;;;;;;;;;5038627;28;20487;-82
2022/08/24 03:16:39;;;;;;;8.43;7.72;;;;;;;;;;5038564;28;20577;-82
2022/08/24 03:19:06;;;;;;;11.00;8.48;;;;;;;;;;5065314;28;20049;-82
2022/08/24 03:21:33;;;;;;;8.52;7.70;;;;;;;;;;5077051;28;20049;-83
2022/08/24 03:24:00;;;;;;;9.35;7.85;;;;;;;;;;5061652;28;20033;-82
2022/08/24 03:26:27;;;;;;;10.32;7.60;;;;;;;;;;5054046;28;20538;-83
2022/08/24 03:28:55;;;;;;;7.88;7.13;;;;;;;;;;5058852;28;20045;-83
2022/08/24 03:31:25;;;;;;;9.13;8.15;;;;;;;;;;5040748;28;20106;-83
2022/08/24 03:33:52;;;;;;;9.30;8.30;;;;;;;;;;5040285;28;20052;-82
2022/08/24 03:36:19;;;;;;;10.45;8.27;;;;;;;;;;5039850;28;20118;-83
2022/08/24 03:38:46;;;;;;;11.68;8.57;;;;;;;;;;5039642;28;20072;-82
2022/08/24 03:41:13;;;;;;;9.32;8.52;;;;;;;;;;5038713;28;20542;-83
2022/08/24 03:43:47;;;;;;;9.32;8.50;;;;;;;;;;5057031;28;20079;-83
2022/08/24 03:46:16;;;;;;;12.70;9.85;;;;;;;;;;5038433;28;20045;-82
2022/08/24 03:48:46;;;;;;;10.10;9.10;;;;;;;;;;5056427;28;20128;-82
2022/08/24 03:51:15;;;;;;;12.90;8.85;;;;;;;;;;5039214;28;20052;-82
2022/08/24 03:53:43;;;;;;;12.38;9.05;;;;;;;;;;5059253;28;20049;-82
2022/08/24 03:56:11;;;;;;;10.20;8.95;;;;;;;;;;5040614;28;20048;-82
2022/08/24 03:58:40;;;;;;;10.10;9.10;;;;;;;;;;5057782;28;20084;-82
2022/08/24 04:01:08;;;;;;;10.10;9.10;;;;;;;;;;5057689;28;20045;-82
2022/08/24 04:03:36;;;;;;;10.10;9.10;;;;;;;;;;5057047;28;20052;-82
2022/08/24 04:06:04;;;;;;;10.13;9.13;;;;;;;;;;5039370;28;20053;-82
2022/08/24 04:08:32;;;;;;;10.55;8.30;;;;;;;;;;5056028;28;20403;-83
2022/08/24 04:10:59;;;;;;;11.93;10.43;;;;;;;;;;5056696;28;20507;-82
2022/08/24 04:13:30;;;;;;;11.25;9.60;;;;;;;;;;5038516;28;20048;-82
2022/08/24 04:16:03;;;;;;;13.55;11.88;;;;;;;;;;5056004;28;20059;-82
2022/08/24 04:18:30;;;;;;;16.85;13.13;;;;;;;;;;5038497;28;20127;-82
2022/08/24 04:20:58;;;;;;;12.93;11.55;;;;;;;;;;5037933;28;20049;-82
2022/08/24 04:23:25;;;;;;;18.55;10.70;;;;;;;;;;5038416;28;20045;-82
2022/08/24 04:26:12;;;;;;;11.38;10.23;;;;;;;;;;5055721;28;20045;-83
2022/08/24 04:28:39;;;;;;;12.02;10.10;;;;;;;;;;5037660;28;20136;-82
2022/08/24 04:31:06;;;;;;;11.45;10.32;;;;;;;;;;5038158;28;20049;-83
2022/08/24 04:33:34;;;;;;;16.65;10.20;;;;;;;;;;5037622;28;20052;-82
2022/08/24 04:36:01;;;;;;;10.75;9.57;;;;;;;;;;5037363;28;20499;-82
2022/08/24 04:38:29;;;;;;;11.23;10.07;;;;;;;;;;5037655;28;20052;-82
2022/08/24 04:40:56;;;;;;;12.18;10.65;;;;;;;;;;5055568;28;20061;-82
2022/08/24 04:43:26;;;;;;;13.07;10.18;;;;;;;;;;5037278;28;20084;-82
2022/08/24 04:45:53;;;;;;;10.77;9.77;;;;;;;;;;5036544;28;20103;-82
2022/08/24 04:48:21;;;;;;;15.85;10.70;;;;;;;;;;5075806;22;20075;-83
2022/08/24 04:50:48;;;;;;;11.30;10.30;;;;;;;;;;5054654;28;20079;-82
2022/08/24 04:53:16;;;;;;;10.88;9.80;;;;;;;;;;5036848;28;20095;-82
2022/08/24 04:55:45;;;;;;;15.50;11.27;;;;;;;;;;5036474;28;20080;-82
2022/08/24 04:58:13;;;;;;;14.70;11.75;;;;;;;;;;5036068;28;20084;-82
2022/08/24 05:00:40;;;;;;;20.40;14.05;;;;;;;;;;5036398;28;20526;-82
2022/08/24 05:03:07;;;;;;;25.83;22.85;;;;;;;;;;5036481;28;20052;-82
2022/08/24 05:05:34;;;;;;;29.92;24.65;;;;;;;;;;5036289;28;20052;-83
2022/08/24 05:08:01;;;;;;;33.53;27.95;;;;;;;;;;5053960;28;20128;-82
2022/08/24 05:10:29;;;;;;;20.80;18.67;;;;;;;;;;5036382;28;20120;-82
2022/08/24 05:12:59;;;;;;;14.13;12.68;;;;;;;;;;5053816;28;20084;-82
2022/08/24 05:15:26;;;;;;;18.02;16.40;;;;;;;;;;5036173;28;20099;-82
2022/08/24 05:17:54;;;;;;;17.45;15.77;;;;;;;;;;5035589;28;20053;-83
2022/08/24 05:20:21;;;;;;;13.98;12.05;;;;;;;;;;5035954;28;20498;-82
2022/08/24 05:22:50;;;;;;;12.35;11.05;;;;;;;;;;5035984;28;20081;-82
2022/08/24 05:25:22;;;;;;;7.78;6.72;;;;;;;;;;5035774;28;20049;-82
2022/08/24 05:27:50;;;;;;;5.45;5.05;;;;;;;;;;5052874;28;20099;-82
2022/08/24 05:30:17;;;;;;;4.20;3.92;;;;;;;;;;5035447;28;20049;-82
2022/08/24 05:32:45;;;;;;;4.63;3.42;;;;;;;;;;5053444;28;20081;-82
2022/08/24 05:35:12;;;;;;;4.45;3.42;;;;;;;;;;5034963;28;20049;-82
2022/08/24 05:37:42;;;;;;;3.72;3.20;;;;;;;;;;5035287;28;20119;-83
2022/08/24 05:40:10;;;;;;;2.85;2.63;;;;;;;;;;5052013;28;20087;-83
2022/08/24 05:42:38;;;;;;;3.53;2.42;;;;;;;;;;5035513;28;20132;-82
2022/08/24 05:45:06;;;;;;;4.65;2.95;;;;;;;;;;5035169;28;20045;-83
2022/08/24 05:47:33;;;;;;;2.90;2.60;;;;;;;;;;5035233;28;20512;-83
2022/08/24 05:50:01;;;;;;;4.82;2.50;;;;;;;;;;5035186;28;20045;-82
2022/08/24 05:52:28;;;;;;;7.88;2.90;;;;;;;;;;5052414;28;20049;-82
2022/08/24 05:54:56;;;;;;;6.55;4.18;;;;;;;;;;5052882;28;20073;-82
2022/08/24 05:57:24;;;;;;;14.93;6.00;;;;;;;;;;5039127;28;20076;-83
2022/08/24 05:59:52;;;;;;;26.10;8.57;;;;;;;;;;5057333;28;20080;-84
2022/08/24 06:02:19;;;;;;;21.23;8.13;;;;;;;;;;5055900;28;20480;-83
2022/08/24 06:04:47;;;;;;;6.10;3.75;;;;;;;;;;5056564;28;20060;-82
2022/08/24 06:07:14;;;;;;;6.97;3.88;;;;;;;;;;5038148;28;20440;-83
2022/08/24 06:09:41;;;;;;;21.98;6.13;;;;;;;;;;5054768;28;20045;-82
2022/08/24 06:12:10;;;;;;;12.95;5.10;;;;;;;;;;5034317;28;20052;-83
2022/08/24 06:14:38;;;;;;;9.43;4.50;;;;;;;;;;5034494;28;20103;-83
2022/08/24 06:17:06;;;;;;;16.08;5.40;;;;;;;;;;5034342;28;20068;-83
2022/08/24 06:19:34;;;;;;;20.40;5.35;;;;;;;;;;5034350;28;20091;-82
2022/08/24 06:22:01;;;;;;;13.95;6.80;;;;;;;;;;5034417;28;20095;-82
2022/08/24 06:27:21;;;;;;;13.20;4.47;;;;;;;;;;5052119;28;20076;-83
2022/08/24 06:29:53;;;;;;;11.60;4.70;;;;;;;;;;5034635;28;20045;-83
2022/08/24 06:32:20;;;;;;;8.20;3.83;;;;;;;;;;5034336;28;20048;-83
2022/08/24 06:34:47;;;;;;;6.25;3.50;;;;;;;;;;5034574;28;20475;-83
2022/08/24 06:37:15;;;;;;;3.80;3.00;;;;;;;;;;5052553;28;20049;-83
2022/08/24 06:39:43;;;;;;;3.10;2.90;;;;;;;;;;5034857;28;20056;-83
2022/08/24 06:42:10;;;;;;;3.97;2.97;;;;;;;;;;5052295;28;20538;-83
2022/08/24 06:44:37;;;;;;;4.35;3.10;;;;;;;;;;5034681;28;20084;-83
2022/08/24 06:47:04;;;;;;;3.03;2.75;;;;;;;;;;5034240;28;20053;-83
2022/08/24 06:49:31;;;;;;;7.03;2.90;;;;;;;;;;5034973;28;20396;-83
2022/08/24 06:51:59;;;;;;;3.38;3.00;;;;;;;;;;5058079;28;20135;-83
2022/08/24 06:54:26;;;;;;;4.25;2.88;;;;;;;;;;5038728;28;20045;-83
2022/08/24 06:56:55;;;;;;;2.95;2.75;;;;;;;;;;5038874;28;20056;-84
2022/08/24 06:59:22;;;;;;;3.40;2.63;;;;;;;;;;5038728;28;20098;-83
2022/08/24 07:01:49;;;;;;;3.00;2.80;;;;;;;;;;5038386;28;20102;-83
2022/08/24 07:04:16;;;;;;;4.78;3.13;;;;;;;;;;5038275;28;20132;-83
2022/08/24 07:06:44;;;;;;;3.60;3.10;;;;;;;;;;5038509;28;20080;-84
2022/08/24 07:09:11;;;;;;;5.78;3.28;;;;;;;;;;5038099;28;20076;-82
2022/08/24 07:11:38;;;;;;;14.73;4.97;;;;;;;;;;5056212;28;20048;-83
2022/08/24 07:14:06;;;;;;;18.40;4.72;;;;;;;;;;5037894;28;20492;-84
2022/08/24 07:16:33;;;;;;;12.18;4.75;;;;;;;;;;5037748;28;20594;-83
2022/08/24 07:19:01;;;;;;;11.23;4.75;;;;;;;;;;5055761;28;20076;-83
2022/08/24 07:21:28;;;;;;;16.15;4.85;;;;;;;;;;5038417;28;20049;-83
2022/08/24 07:23:56;;;;;;;12.95;4.32;;;;;;;;;;5038338;28;20076;-83
2022/08/24 07:26:25;;;;;;;18.60;4.80;;;;;;;;;;5055295;28;20098;-83
2022/08/24 07:28:54;;;;;;;16.00;5.35;;;;;;;;;;5037831;28;20443;-83
2022/08/24 07:31:22;;;;;;;14.63;4.95;;;;;;;;;;5055637;28;20439;-83
2022/08/24 07:33:49;;;;;;;12.60;3.67;;;;;;;;;;5038044;28;20045;-83
2022/08/24 07:36:18;;;;;;;16.13;4.07;;;;;;;;;;5037449;28;20053;-84
2022/08/24 07:38:50;;;;;;;11.55;3.60;;;;;;;;;;5042239;28;20049;-84
2022/08/24 07:41:18;;;;;;;15.70;3.88;;;;;;;;;;5039694;28;20063;-84
2022/08/24 07:44:05;;;;;;;17.13;4.20;;;;;;;;;;5043633;28;20112;-84
2022/08/24 07:46:33;;;;;;;12.88;3.65;;;;;;;;;;5039891;28;20048;-84
2022/08/24 07:49:00;;;;;;;8.15;3.25;;;;;;;;;;5055170;28;20057;-83
2022/08/24 07:51:47;;;;;;;11.18;3.08;;;;;;;;;;5039821;28;20057;-84
2022/08/24 07:54:15;;;;;;;7.65;2.55;;;;;;;;;;5036280;28;20052;-83
2022/08/24 07:56:42;;;;;;;8.32;3.05;;;;;;;;;;5036807;28;20107;-83
2022/08/24 07:59:09;;;;;;;10.65;2.70;;;;;;;;;;5036632;28;20080;-83
2022/08/24 08:01:40;;;;;;;7.05;3.00;;;;;;;;;;5053032;28;20048;-84
2022/08/24 08:04:08;;;;;;;8.05;2.55;;;;;;;;;;5054556;28;20496;-83
2022/08/24 08:06:35;;;;;;;9.90;2.80;;;;;;;;;;5036616;28;20041;-83
2022/08/24 08:09:04;;;;;;;5.40;2.42;;;;;;;;;;5054556;28;20049;-83
2022/08/24 08:11:31;;;;;;;7.07;2.58;;;;;;;;;;5036630;28;20091;-83
2022/08/24 08:13:58;;;;;;;4.57;1.92;;;;;;;;;;5036186;28;20130;-85
2022/08/24 08:16:26;;;;;;;4.53;2.50;;;;;;;;;;5054278;28;20551;-83
2022/08/24 08:18:54;;;;;;;4.38;2.33;;;;;;;;;;5036284;28;20128;-83
2022/08/24 08:24:30;;;;;;;3.70;2.40;;;;;;;;;;5057013;28;20462;-83
2022/08/24 08:26:58;;;;;;;7.78;4.68;;;;;;;;;;5039352;28;20045;-83
2022/08/24 08:29:25;;;;;;;4.93;2.30;;;;;;;;;;5040688;28;20128;-84
2022/08/24 08:31:53;;;;;;;3.17;2.17;;;;;;;;;;5041427;28;20041;-85
2022/08/24 08:34:20;;;;;;;3.35;2.08;;;;;;;;;;5043113;28;20094;-84
2022/08/24 08:36:48;;;;;;;4.78;1.90;;;;;;;;;;5060340;28;20103;-84
2022/08/24 08:39:16;;;;;;;3.60;2.08;;;;;;;;;;5060088;28;20041;-85
2022/08/24 08:41:52;;;;;;;3.40;1.85;;;;;;;;;;5059576;28;20484;-84
2022/08/24 08:44:33;;;;;;;4.55;2.10;;;;;;;;;;5042135;28;20052;-84
2022/08/24 08:47:03;;;;;;;7.75;2.20;;;;;;;;;;5042356;28;20048;-84
2022/08/24 08:49:46;;;;;;;4.35;2.08;;;;;;;;;;5042311;28;20506;-84
2022/08/24 08:52:25;;;;;;;3.28;1.90;;;;;;;;;;5042061;28;20049;-84
2022/08/24 08:54:52;;;;;;;2.83;1.77;;;;;;;;;;5057692;28;20048;-84
2022/08/24 08:57:33;;;;;;;2.63;1.83;;;;;;;;;;5037150;28;20103;-83
2022/08/24 09:00:08;;;;;;;3.78;1.90;;;;;;;;;;5054450;28;20049;-84
2022/08/24 09:02:53;;;;;;;3.67;1.90;;;;;;;;;;5037834;28;20051;-82
2022/08/24 09:05:20;;;;;;;3.28;2.40;;;;;;;;;;5054562;28;20041;-82
2022/08/24 09:08:04;;;;;;;3.17;1.90;;;;;;;;;;5036201;28;20068;-83
2022/08/24 09:10:44;;;;;;;4.13;2.15;;;;;;;;;;5053302;28;20056;-82
2022/08/24 09:13:26;;;;;;;6.30;2.08;;;;;;;;;;5054128;28;20072;-84
2022/08/24 09:16:15;;;;;;;4.93;2.25;;;;;;;;;;5054089;28;20088;-82
2022/08/24 09:18:46;;;;;;;2.83;1.90;;;;;;;;;;5053443;28;20087;-82
2022/08/24 09:21:32;;;;;;;4.65;1.92;;;;;;;;;;5035593;28;20601;-83
2022/08/24 09:24:00;;;;;;;2.70;1.90;;;;;;;;;;5035478;28;20041;-83
2022/08/24 09:26:27;;;;;;;9.45;2.03;;;;;;;;;;5035735;28;20053;-83
2022/08/24 09:29:13;;;;;;;2.83;1.80;;;;;;;;;;5052650;28;20049;-82
2022/08/24 09:32:10;;;;;;;2.97;1.73;;;;;;;;;;5052514;28;20045;-83
2022/08/24 09:34:45;;;;;;;1.92;1.60;;;;;;;;;;4983653;28;20048;-83
2022/08/24 09:37:42;;;;;;;3.65;1.80;;;;;;;;;;5034861;28;20049;-84
2022/08/24 09:40:17;;;;;;;4.13;2.10;;;;;;;;;;5018697;28;20053;-82
2022/08/24 09:43:10;;;;;;;1.60;1.50;;;;;;;;;;5035583;28;20071;-83
2022/08/24 09:45:43;;;;;;;1.60;1.50;;;;;;;;;;5052619;28;20053;-83
2022/08/24 09:48:29;;;;;;;5.18;1.85;;;;;;;;;;5051894;28;20053;-82
2022/08/24 09:51:00;;;;;;;3.55;1.77;;;;;;;;;;5034793;28;20052;-82
2022/08/24 09:53:39;;;;;;;5.25;2.40;;;;;;;;;;5034813;28;20044;-82
2022/08/24 09:56:12;;;;;;;2.13;1.58;;;;;;;;;;5035473;28;20052;-83
2022/08/24 09:59:12;;;;;;;3.47;1.90;;;;;;;;;;5052408;28;20053;-82
2022/08/24 10:01:45;;;;;;;1.92;1.70;;;;;;;;;;4993116;28;20063;-82
2022/08/24 10:04:31;;;;;;;2.80;1.73;;;;;;;;;;5034378;28;20138;-82
2022/08/24 10:07:07;;;;;;;2.78;1.40;;;;;;;;;;5034642;28;20053;-83
2022/08/24 10:09:49;;;;;;;5.47;1.75;;;;;;;;;;5035027;28;20045;-83
2022/08/24 10:12:28;;;;;;;3.17;1.80;;;;;;;;;;5034628;28;20488;-81
2022/08/24 10:15:14;;;;;;;8.98;2.65;;;;;;;;;;5052892;28;20056;-83
2022/08/24 10:18:00;;;;;;;2.80;1.83;;;;;;;;;;5034978;28;20461;-82
2022/08/24 10:20:47;;;;;;;1.63;1.50;;;;;;;;;;5035165;28;20056;-82
2022/08/24 10:23:33;;;;;;;7.45;2.00;;;;;;;;;;5052561;28;20502;-83
2022/08/24 10:26:06;;;;;;;2.78;1.52;;;;;;;;;;5054802;28;20110;-83
2022/08/24 10:28:42;;;;;;;4.95;1.80;;;;;;;;;;5038878;28;20079;-82
2022/08/24 10:31:32;;;;;;;8.13;2.00;;;;;;;;;;5056166;28;20067;-83
2022/08/24 10:34:18;;;;;;;6.85;2.08;;;;;;;;;;5018975;28;20053;-83
2022/08/24 10:36:54;;;;;;;3.40;1.60;;;;;;;;;;5056743;28;20045;-82
2022/08/24 10:39:41;;;;;;;2.47;1.88;;;;;;;;;;5056959;28;20052;-83
2022/08/24 10:45:16;;;;;;;6.50;2.40;;;;;;;;;;5056618;28;20049;-81
2022/08/24 10:48:02;;;;;;;5.18;1.85;;;;;;;;;;5038979;28;20087;-83
2022/08/24 10:50:37;;;;;;;2.00;1.48;;;;;;;;;;5056340;28;20488;-80
2022/08/24 10:53:24;;;;;;;4.35;1.73;;;;;;;;;;5056819;28;20053;-81
2022/08/24 10:55:59;;;;;;;5.68;1.48;;;;;;;;;;5038701;28;20073;-81
2022/08/24 10:58:45;;;;;;;3.45;1.48;;;;;;;;;;5038622;28;20061;-81
2022/08/24 11:01:14;;;;;;;5.47;1.48;;;;;;;;;;5041417;28;20052;-84
2022/08/24 11:03:47;;;;;;;1.50;1.40;;;;;;;;;;5061652;28;20060;-83
2022/08/24 11:06:16;;;;;;;2.42;1.67;;;;;;;;;;5043226;28;20491;-83
2022/08/24 11:09:12;;;;;;;8.32;2.40;;;;;;;;;;5037559;28;20049;-83
2022/08/24 11:11:47;;;;;;;8.95;2.00;;;;;;;;;;5042536;28;20047;-81
2022/08/24 11:14:14;;;;;;;4.22;1.60;;;;;;;;;;5055269;28;20452;-82
2022/08/24 11:16:43;;;;;;;3.50;1.52;;;;;;;;;;5037846;28;20052;-81
2022/08/24 11:19:28;;;;;;;2.17;1.50;;;;;;;;;;5037898;28;20060;-81
2022/08/24 11:21:56;;;;;;;5.25;1.63;;;;;;;;;;5054955;28;20048;-81
2022/08/24 11:24:24;;;;;;;6.07;2.00;;;;;;;;;;5037245;28;20103;-85
2022/08/24 11:26:54;;;;;;;3.80;1.55;;;;;;;;;;5037636;28;20096;-84
2022/08/24 11:29:22;;;;;;;3.80;1.60;;;;;;;;;;5037415;28;20080;-84
2022/08/24 11:31:51;;;;;;;2.15;1.88;;;;;;;;;;5037566;28;20099;-84
2022/08/24 11:34:30;;;;;;;4.50;1.83;;;;;;;;;;5055813;28;20059;-85
2022/08/24 11:36:57;;;;;;;5.20;1.95;;;;;;;;;;5042002;28;20053;-84
2022/08/24 11:39:35;;;;;;;5.03;2.08;;;;;;;;;;5059277;28;20049;-85
2022/08/24 11:42:12;;;;;;;4.45;2.05;;;;;;;;;;5041085;28;20097;-83
2022/08/24 11:44:42;;;;;;;2.33;2.13;;;;;;;;;;5040882;28;20073;-83
2022/08/24 11:47:10;;;;;;;4.85;2.53;;;;;;;;;;5040083;28;20049;-85
2022/08/24 11:49:47;;;;;;;4.78;2.33;;;;;;;;;;5057883;28;20072;-84
2022/08/24 11:52:24;;;;;;;10.18;2.47;;;;;;;;;;5040162;28;20132;-83
2022/08/24 11:54:54;;;;;;;3.80;2.03;;;;;;;;;;5038220;28;20057;-83
2022/08/24 11:57:30;;;;;;;3.80;2.20;;;;;;;;;;5037554;28;20053;-82
2022/08/24 12:00:04;;;;;;;3.25;2.05;;;;;;;;;;5037661;28;20076;-81
2022/08/24 12:02:31;;;;;;;;;;;;;;;;;;5037462;28;20489;-82
2022/08/24 12:05:06;;;;;;;3.65;2.20;;;;;;;;;;5056737;28;19921;-84
2022/08/24 12:07:53;;;;;;;6.93;2.10;;;;;;;;;;5043069;28;20045;-83
2022/08/24 12:10:39;;;;;;;2.50;2.10;;;;;;;;;;5038023;28;20056;-83
2022/08/24 12:13:25;;;;;;;5.18;2.00;;;;;;;;;;5054963;28;20358;-82
2022/08/24 12:15:58;;;;;;;4.63;1.90;;;;;;;;;;5054662;28;20079;-84
2022/08/24 12:18:25;;;;;;;;;;;;;;;;;;5038982;28;20502;-85
2022/08/24 12:20:52;;;;;;;3.38;2.08;;;;;;;;;;5056734;28;20383;-84
2022/08/24 12:23:31;;;;;;;2.70;2.17;;;;;;;;;;5040307;28;20080;-85
2022/08/24 12:26:01;;;;;;;6.97;2.10;;;;;;;;;;5038238;28;20049;-84
2022/08/24 12:28:31;;;;;;;4.35;2.22;;;;;;;;;;5036207;28;20048;-83
2022/08/24 12:31:02;;;;;;;2.08;1.98;;;;;;;;;;5036767;28;20041;-83
2022/08/24 12:33:32;;;;;;;7.35;2.38;;;;;;;;;;5053903;28;20052;-84
2022/08/24 12:36:06;;;;;;;6.60;2.20;;;;;;;;;;5037622;28;20055;-82
2022/08/24 12:38:49;;;;;;;3.03;2.40;;;;;;;;;;5054870;28;20053;-82
2022/08/24 12:41:19;;;;;;;4.68;2.30;;;;;;;;;;5054339;28;20053;-82
2022/08/24 12:43:47;;;;;;;6.47;1.98;;;;;;;;;;5054234;28;20080;-82
2022/08/24 12:46:16;;;;;;;2.83;2.00;;;;;;;;;;5055459;28;20393;-84
2022/08/24 12:48:46;;;;;;;4.88;2.58;;;;;;;;;;5036154;28;20404;-82
2022/08/24 12:51:16;;;;;;;6.07;2.45;;;;;;;;;;5053499;28;20094;-83
2022/08/24 12:53:53;;;;;;;3.58;2.42;;;;;;;;;;5053927;28;20056;-83
2022/08/24 12:56:23;;;;;;;10.05;3.05;;;;;;;;;;5053858;28;20084;-83
2022/08/24 12:58:57;;;;;;;7.10;2.50;;;;;;;;;;5053477;28;20462;-84
2022/08/24 13:01:26;;;;;;;4.60;2.38;;;;;;;;;;5053596;28;20499;-82
2022/08/24 13:04:03;;;;;;;3.03;2.17;;;;;;;;;;5053732;28;20049;-81
2022/08/24 13:06:49;;;;;;;5.03;2.10;;;;;;;;;;5053762;28;20079;-84
2022/08/24 13:09:28;;;;;;;5.30;2.38;;;;;;;;;;5053323;28;20049;-83
2022/08/24 13:11:58;;;;;;;2.17;1.98;;;;;;;;;;5053466;28;20573;-83
2022/08/24 13:14:27;;;;;;;4.82;2.33;;;;;;;;;;5053641;28;20339;-83
2022/08/24 13:16:57;;;;;;;2.40;2.20;;;;;;;;;;5053338;28;20083;-84
2022/08/24 13:19:30;;;;;;;6.10;2.50;;;;;;;;;;5053304;28;20080;-84
2022/08/24 13:21:58;;;;;;;4.38;2.20;;;;;;;;;;5053517;28;20082;-83
2022/08/24 13:24:28;;;;;;;3.95;2.20;;;;;;;;;;5035973;28;20064;-83
2022/08/24 13:26:56;;;;;;;7.10;2.45;;;;;;;;;;5053980;28;20530;-83
2022/08/24 13:29:28;;;;;;;2.20;2.05;;;;;;;;;;5035986;28;20076;-84
2022/08/24 13:31:58;;;;;;;7.03;2.47;;;;;;;;;;5035951;28;20071;-82
2022/08/24 13:34:45;;;;;;;2.85;2.10;;;;;;;;;;5053021;28;20053;-82
2022/08/24 13:37:22;;;;;;;2.40;2.20;;;;;;;;;;5053278;28;20424;-83
2022/08/24 13:39:53;;;;;;;3.35;2.15;;;;;;;;;;5035696;28;20053;-84
2022/08/24 13:42:42;;;;;;;5.28;2.10;;;;;;;;;;5053384;28;20508;-83
2022/08/24 13:45:30;;;;;;;3.58;1.67;;;;;;;;;;5035178;28;20069;-81
2022/08/24 13:47:57;;;;;;;6.70;2.10;;;;;;;;;;5052652;28;20045;-82
2022/08/24 13:50:27;;;;;;;5.47;2.20;;;;;;;;;;5053411;28;20135;-83
2022/08/24 13:52:55;;;;;;;3.45;2.00;;;;;;;;;;5035290;28;20049;-82
2022/08/24 13:55:40;;;;;;;2.10;1.90;;;;;;;;;;5052965;28;20174;-83
2022/08/24 13:58:40;;;;;;;1.88;1.60;;;;;;;;;;5052839;28;20084;-83
2022/08/24 14:01:29;;;;;;;4.00;1.67;;;;;;;;;;5013039;28;20511;-82
2022/08/24 14:04:03;;;;;;;5.25;2.10;;;;;;;;;;5039329;28;20041;-83
2022/08/24 14:06:56;;;;;;;4.28;2.05;;;;;;;;;;5057037;28;20103;-82
2022/08/24 14:09:30;;;;;;;3.83;2.40;;;;;;;;;;5009708;28;20491;-83
2022/08/24 14:12:18;;;;;;;4.00;2.13;;;;;;;;;;5056901;28;20057;-83
2022/08/24 14:14:50;;;;;;;2.83;2.00;;;;;;;;;;5056295;28;20045;-80
2022/08/24 14:17:50;;;;;;;4.13;1.80;;;;;;;;;;5056459;28;20081;-84
2022/08/24 14:20:43;;;;;;;2.72;1.90;;;;;;;;;;5056279;28;20076;-82
2022/08/24 14:23:16;;;;;;;3.00;1.83;;;;;;;;;;5056247;28;20092;-82
2022/08/24 14:25:44;;;;;;;2.88;1.70;;;;;;;;;;5039377;28;20457;-82
2022/08/24 14:28:23;;;;;;;2.20;2.00;;;;;;;;;;5058356;28;20110;-85
2022/08/24 14:31:28;;;;;;;2.47;1.88;;;;;;;;;;5060978;28;20052;-84
2022/08/24 14:33:58;;;;;;;6.15;2.20;;;;;;;;;;4979491;28;20074;-83
2022/08/24 14:36:41;;;;;;;4.88;2.30;;;;;;;;;;5046600;28;20045;-84
2022/08/24 14:39:12;;;;;;;4.15;2.10;;;;;;;;;;5059205;28;20103;-84
2022/08/24 14:41:54;;;;;;;5.03;2.25;;;;;;;;;;5041547;28;20053;-82
2022/08/24 14:44:21;;;;;;;1.90;1.80;;;;;;;;;;5059679;28;20045;-83
2022/08/24 14:47:07;;;;;;;4.38;1.83;;;;;;;;;;5058145;28;20094;-84
2022/08/24 14:49:37;;;;;;;2.38;2.10;;;;;;;;;;5041448;28;20078;-84
2022/08/24 14:52:13;;;;;;;2.20;1.80;;;;;;;;;;5058353;28;20147;-81
2022/08/24 14:54:43;;;;;;;4.18;1.80;;;;;;;;;;5058821;28;20056;-83
2022/08/24 14:57:19;;;;;;;4.10;1.83;;;;;;;;;;5040453;28;20049;-83
2022/08/24 14:59:53;;;;;;;2.63;1.90;;;;;;;;;;5041372;28;20099;-82
2022/08/24 15:02:37;;;;;;;2.90;2.20;;;;;;;;;;5040208;28;20447;-81
2022/08/24 15:05:04;;;;;;;;;;;;;;;;;;5057471;28;20077;-82
2022/08/24 15:07:33;;;;;;;1.95;1.80;;;;;;;;;;5056238;28;19921;-82
2022/08/24 15:10:01;;;;;;;2.55;2.03;;;;;;;;;;5056875;28;20381;-83
2022/08/24 15:12:28;;;;;;;2.45;2.03;;;;;;;;;;5055912;28;20076;-85
2022/08/24 15:15:01;;;;;;;3.08;2.17;;;;;;;;;;5055180;28;20495;-83
2022/08/24 15:17:28;;;;;;;;;;;;;;;;;;5038257;28;20122;-82